King Daniel — V7MU2 — position and weather

sailwx.info

Track history (hours):
 
Tides and Currents Weather Stations Pressure Air Temp Water Temp Dewpoint Dewpoint Depression Visibility Wind Speed Wind Dir Waves Ship Positions

King Daniel

Last reported at 2018-Jun-17 23:18 UTC. Time now 2018-Jun-17 23:53 UTC.
Position N 34°55' W 121°41'.

Length 220 m; draft 8.5 m.

Type: Tanker. MMSI: 538090316.

Date/timePositionNaut miles runAvg speedWind from/ knotsBaromVisibWave heightAir tempDewpointWater temp
2018-Jun-17 23:18N 34°55' W 121°41'311.3
2018-Jun-17 23:00N 34°58' W 121°43'611.1
2018-Jun-17 22:25N 35°04' W 121°46'511.9
2018-Jun-17 22:00N 35°09' W 121°49'13411.3
2018-Jun-17 10:10N 37°09' W 123°01'1710.8
2018-Jun-17 08:34N 37°26' W 123°06'211.3
2018-Jun-17 08:25N 37°28' W 123°06'611.3
2018-Jun-17 07:51N 37°34' W 123°04'411.2
2018-Jun-17 07:30N 37°36' W 123°00'611.2
2018-Jun-17 07:00N 37°39' W 122°54'510.4
2018-Jun-17 06:30N 37°42' W 122°48'510.2
2018-Jun-17 06:00N 37°44' W 122°43'4 7.1
2018-Jun-17 05:30N 37°46' W 122°39'610.9
2018-Jun-17 05:00N 37°48' W 122°32'611.7
2018-Jun-17 04:30N 37°51' W 122°26'510.5
2018-Jun-17 04:00N 37°56' W 122°27'612.3
2018-Jun-17 03:30N 38°01' W 122°23'611.3
2018-Jun-17 03:00N 38°04' W 122°17'610.1
2018-Jun-17 02:22N 38°02' W 122°09'1 2.2
2018-Jun-17 02:00N 38°02' W 122°08'0 0.0
2018-Jun-15 09:17N 38°02' W 122°08'0 0.0
2018-Jun-15 09:00N 38°02' W 122°08'1 1.0
2018-Jun-15 08:30N 38°02' W 122°08'4 6.7
2018-Jun-15 07:58N 38°04' W 122°12'4 9.6
2018-Jun-15 07:30N 38°03' W 122°18'4 7.8
2018-Jun-15 07:00N 38°02' W 122°23'610.6
2018-Jun-15 06:25N 37°56' W 122°27'410.2
2018-Jun-15 06:00N 37°52' W 122°25'5 9.0
2018-Jun-15 05:30N 37°48' W 122°23'4 8.0
2018-Jun-15 05:00N 37°45' W 122°21'1 2.3
2018-Jun-15 04:30N 37°44' W 122°20'0 0.0
2018-Jun-15 03:59N 37°44' W 122°20'0 0.1
2018-Jun-15 03:29N 37°44' W 122°20'0 0.2
2018-Jun-15 02:59N 37°44' W 122°20'0 0.3
2018-Jun-15 02:29N 37°44' W 122°20'0 0.1
2018-Jun-15 01:59N 37°44' W 122°20'0 0.0
2018-Jun-15 01:30N 37°44' W 122°20'0 0.0
2018-Jun-15 00:59N 37°44' W 122°20'0 0.0
2018-Jun-15 00:27N 37°44' W 122°20'0 0.0
2018-Jun-15 00:00N 37°44' W 122°20'0 0.0
2018-Jun-14 23:29N 37°44' W 122°20'0 0.1
2018-Jun-14 22:50N 37°44' W 122°20'0 0.2
2018-Jun-14 22:17N 37°44' W 122°20'0 0.3
2018-Jun-14 21:56N 37°44' W 122°20'0 0.2
2018-Jun-14 21:29N 37°44' W 122°20'0 0.0
2018-Jun-14 20:59N 37°44' W 122°20'0 0.1
2018-Jun-14 20:26N 37°44' W 122°20'0 0.1
2018-Jun-14 19:56N 37°44' W 122°20'0 0.0
2018-Jun-14 19:29N 37°44' W 122°20'0 0.0
2018-Jun-14 18:59N 37°44' W 122°20'0 0.0
2018-Jun-14 18:27N 37°44' W 122°20'0 0.0
2018-Jun-14 17:56N 37°44' W 122°20'0 0.0
2018-Jun-14 17:29N 37°44' W 122°20'0 0.0
2018-Jun-14 16:59N 37°44' W 122°20'0 0.0
2018-Jun-14 16:29N 37°44' W 122°20'0 0.1
2018-Jun-14 16:00N 37°44' W 122°20'0 0.4
2018-Jun-14 15:30N 37°44' W 122°20'0 0.2
2018-Jun-14 14:59N 37°44' W 122°20'0 0.0
2018-Jun-14 14:30N 37°44' W 122°20'0 0.0
2018-Jun-14 13:59N 37°44' W 122°20'0 0.0
2018-Jun-14 13:29N 37°44' W 122°20'0 0.1
2018-Jun-14 12:59N 37°44' W 122°20'0 0.1
2018-Jun-14 12:29N 37°44' W 122°20'0 0.0
2018-Jun-14 11:59N 37°44' W 122°20'0 0.0
2018-Jun-14 11:30N 37°44' W 122°20'0 0.0
2018-Jun-14 11:00N 37°44' W 122°20'0 0.0
2018-Jun-14 10:30N 37°44' W 122°20'0 0.1
2018-Jun-14 09:59N 37°44' W 122°20'0 0.0
2018-Jun-14 09:30N 37°44' W 122°20'0 0.0
2018-Jun-14 09:00N 37°44' W 122°20'0 0.2
2018-Jun-14 08:26N 37°44' W 122°20'0 0.4
2018-Jun-14 08:00N 37°44' W 122°20'0 0.1
2018-Jun-14 07:29N 37°44' W 122°20'0 0.0
2018-Jun-14 06:59N 37°44' W 122°20'0 0.0
2018-Jun-14 06:30N 37°44' W 122°20'0 0.0
2018-Jun-14 06:00N 37°44' W 122°20'0 0.0
2018-Jun-14 05:29N 37°44' W 122°20'0 0.0
2018-Jun-14 04:59N 37°44' W 122°20'0 0.0
2018-Jun-14 04:30N 37°44' W 122°20'0 0.1
2018-Jun-14 04:00N 37°44' W 122°20'0 0.0
2018-Jun-14 03:26N 37°44' W 122°20'0 0.0
2018-Jun-14 02:59N 37°44' W 122°20'0 0.1
2018-Jun-14 02:29N 37°44' W 122°20'0 0.2
2018-Jun-14 01:59N 37°44' W 122°20'0 0.3
2018-Jun-14 01:29N 37°44' W 122°20'0 0.0
2018-Jun-14 00:59N 37°44' W 122°20'0 0.1
2018-Jun-14 00:29N 37°44' W 122°20'0 0.0
2018-Jun-13 23:57N 37°44' W 122°20'0 0.0
2018-Jun-13 23:29N 37°44' W 122°20'0 0.0
2018-Jun-13 22:59N 37°44' W 122°20'0 0.1
2018-Jun-13 22:26N 37°44' W 122°20'0 0.1
2018-Jun-13 21:59N 37°44' W 122°20'0 0.2
2018-Jun-13 21:29N 37°44' W 122°20'0 0.2
2018-Jun-13 20:56N 37°44' W 122°20'0 0.2
2018-Jun-13 20:29N 37°44' W 122°20'0 0.0
2018-Jun-13 19:59N 37°44' W 122°20'0 0.0
2018-Jun-13 19:26N 37°44' W 122°20'0 0.0
2018-Jun-13 18:59N 37°44' W 122°20'0 0.0
2018-Jun-13 18:26N 37°44' W 122°20'0 0.0
2018-Jun-13 17:56N 37°44' W 122°20'0 0.1
2018-Jun-13 17:26N 37°44' W 122°20'0 0.7
2018-Jun-13 17:01N 37°44' W 122°20'4 8.2
2018-Jun-13 16:30N 37°47' W 122°22'510.1
2018-Jun-13 16:00N 37°49' W 122°28'611.4
2018-Jun-13 15:30N 37°47' W 122°35'5 9.9
2018-Jun-13 15:00N 37°45' W 122°41'4 7.8
2018-Jun-13 14:30N 37°42' W 122°44'5 9.3
2018-Jun-13 14:00N 37°39' W 122°49'5 9.3
2018-Jun-13 13:30N 37°37' W 122°54'5 9.4
2018-Jun-13 12:59N 37°34' W 122°59'5 9.4
2018-Jun-13 12:30N 37°31' W 123°04'5 9.3
2018-Jun-13 12:00N 37°28' W 123°08'5 9.1
2018-Jun-13 11:29N 37°25' W 123°12'6 9.0
2018-Jun-13 10:51N 37°21' W 123°18'1 1.0
2018-Jun-13 10:11N 37°22' W 123°18'0 2.0
2018-Jun-13 09:59N 37°22' W 123°18'1 1.9
2018-Jun-13 09:29N 37°23' W 123°18'1 1.9
2018-Jun-13 08:53N 37°24' W 123°17'1 2.0
2018-Jun-13 08:29N 37°25' W 123°17'2 2.0
2018-Jun-13 07:17N 37°28' W 123°17'1 2.1
2018-Jun-13 07:00N 37°28' W 123°17'1 2.2
2018-Jun-13 06:30N 37°29' W 123°17'1 2.0
2018-Jun-13 06:00N 37°30' W 123°17'1 1.8
2018-Jun-13 05:30N 37°31' W 123°17'3 6.3
2018-Jun-13 04:59N 37°28' W 123°15'4 8.6
2018-Jun-13 04:30N 37°25' W 123°12'4 7.6
2018-Jun-13 03:58N 37°21' W 123°09'3 5.8
2018-Jun-13 03:26N 37°19' W 123°07'1 1.7
2018-Jun-13 03:00N 37°19' W 123°08'1 1.7
2018-Jun-13 02:30N 37°19' W 123°09'1 1.9
2018-Jun-13 02:00N 37°20' W 123°10'1 1.8
2018-Jun-13 01:29N 37°20' W 123°11'1 1.8
2018-Jun-13 01:00N 37°21' W 123°12'17 1.1
2018-Jun-12 09:32N 37°32' W 123°27'2 2.1
2018-Jun-12 08:48N 37°34' W 123°27'2 2.0
2018-Jun-12 07:42N 37°36' W 123°27'1 2.0
2018-Jun-12 07:20N 37°36' W 123°27'1 1.9
2018-Jun-12 06:47N 37°38' W 123°27'1 1.9
2018-Jun-12 06:24N 37°38' W 123°27'1 1.8
2018-Jun-12 05:50N 37°39' W 123°27'1 1.8
2018-Jun-12 05:29N 37°40' W 123°27'1 1.5
2018-Jun-12 05:00N 37°41' W 123°27'3 5.1
2018-Jun-12 04:30N 37°38' W 123°26'4 8.9
2018-Jun-12 04:00N 37°34' W 123°24'4 8.6
2018-Jun-12 03:30N 37°30' W 123°23'5 8.8
2018-Jun-12 02:58N 37°25' W 123°23'5 9.2
2018-Jun-12 02:28N 37°21' W 123°24'4 9.0
2018-Jun-12 02:00N 37°16' W 123°25'23 1.2
2018-Jun-11 06:44N 37°40' W 123°25'0 1.6
2018-Jun-11 06:30N 37°40' W 123°25'1 1.5
2018-Jun-11 05:45N 37°41' W 123°25'1 1.0
2018-Jun-11 04:40N 37°42' W 123°25'1 5.4
2018-Jun-11 04:30N 37°41' W 123°24'7 9.4
2018-Jun-11 03:45N 37°34' W 123°25'4 9.2
2018-Jun-11 03:20N 37°31' W 123°26'6 1.3
2018-Jun-10 22:34N 37°37' W 123°26'3 1.5
2018-Jun-10 20:47N 37°40' W 123°26'0 1.4
2018-Jun-10 20:30N 37°40' W 123°26'1 1.4
2018-Jun-10 19:57N 37°41' W 123°25'1 1.4
2018-Jun-10 19:30N 37°41' W 123°25'1 1.3
2018-Jun-10 18:46N 37°42' W 123°25'0 0.6
2018-Jun-10 18:29N 37°42' W 123°25'3 5.8
2018-Jun-10 17:55N 37°39' W 123°24'4 9.8
2018-Jun-10 17:29N 37°36' W 123°21'4 0.3
2018-Jun-10 06:37N 37°32' W 123°20'3 1.6
2018-Jun-10 04:24N 37°35' W 123°20'1 1.4
2018-Jun-10 03:58N 37°36' W 123°20'1 1.3
2018-Jun-10 03:27N 37°37' W 123°20'1 0.8
2018-Jun-10 02:34N 37°37' W 123°20'0 0.1
2018-Jun-10 02:30N 37°37' W 123°20'13 1.0
2018-Jun-09 13:14N 37°28' W 123°10'2 9.7
2018-Jun-09 13:00N 37°26' W 123°08'6811.7
2018-Jun-09 07:11N 36°26' W 122°28'212.1
2018-Jun-09 06:59N 36°23' W 122°28'1011.5
2018-Jun-09 06:07N 36°14' W 122°24'111.3
2018-Jun-09 06:00N 36°13' W 122°23'710.9
2018-Jun-09 05:23N 36°07' W 122°20'411.0
2018-Jun-09 05:00N 36°03' W 122°18'611.2
2018-Jun-09 04:30N 35°57' W 122°17'5 9.3
2018-Jun-09 03:59N 35°52' W 122°16'13 9.9
2018-Jun-09 02:38N 35°41' W 122°07'410.9
2018-Jun-09 02:18N 35°38' W 122°05'611.0
2018-Jun-09 01:47N 35°33' W 122°02'311.0
2018-Jun-09 01:30N 35°30' W 122°00'511.0
2018-Jun-09 01:00N 35°25' W 121°58'711.1
2018-Jun-09 00:20N 35°18' W 121°54'611.3
2018-Jun-08 23:48N 35°13' W 121°51'311.3
2018-Jun-08 23:30N 35°10' W 121°49'611.5
2018-Jun-08 23:00N 35°04' W 121°47'611.2
2018-Jun-08 22:30N 34°59' W 121°44'811.1
2018-Jun-08 21:49N 34°52' W 121°41'311.0
2018-Jun-08 21:30N 34°49' W 121°39'611.1
2018-Jun-08 21:00N 34°44' W 121°36'611.5
2018-Jun-08 20:30N 34°39' W 121°33'611.8
2018-Jun-08 20:00N 34°33' W 121°31'611.7
2018-Jun-08 19:27N 34°27' W 121°27'511.5
2018-Jun-08 18:59N 34°23' W 121°24'611.2
2018-Jun-08 18:28N 34°18' W 121°20'511.2
2018-Jun-08 18:00N 34°14' W 121°17'611.2
2018-Jun-08 17:30N 34°09' W 121°13'511.0
2018-Jun-08 17:00N 34°04' W 121°09'611.4
2018-Jun-08 16:30N 33°59' W 121°06'510.9
2018-Jun-08 16:00N 33°55' W 121°03'510.8
2018-Jun-08 15:30N 33°50' W 120°59'510.7
2018-Jun-08 15:00N 33°45' W 120°56'510.7
2018-Jun-08 14:30N 33°41' W 120°53'510.3
2018-Jun-08 14:00N 33°37' W 120°49'510.1
2018-Jun-08 13:30N 33°32' W 120°46'510.0
2018-Jun-08 12:59N 33°28' W 120°42'510.3
2018-Jun-08 12:30N 33°25' W 120°38'510.6
2018-Jun-08 12:00N 33°20' W 120°34'510.2
2018-Jun-08 11:30N 33°16' W 120°31'5 9.9
2018-Jun-08 11:00N 33°12' W 120°28'5 9.8
2018-Jun-08 10:30N 33°08' W 120°24'510.5
2018-Jun-08 10:00N 33°04' W 120°21'510.5
2018-Jun-08 09:30N 32°59' W 120°17'  
Track history (hours):
 
Tides and Currents Weather Stations Pressure Air Temp Water Temp Dewpoint Dewpoint Depression Visibility Wind Speed Wind Dir Waves Ship Positions

King Daniel

Last reported at 2018-Jun-17 23:18 UTC. Time now 2018-Jun-17 23:53 UTC.
Position N 34°55' W 121°41'.

Length 220 m; draft 8.5 m.

Type: Tanker. MMSI: 538090316.

Date/timePositionNaut miles runAvg speedWind from/ knotsBaromVisibWave heightAir tempDewpointWater temp
2018-Jun-17 23:18N 34°55' W 121°41'311.3
2018-Jun-17 23:00N 34°58' W 121°43'611.1
2018-Jun-17 22:25N 35°04' W 121°46'511.9
2018-Jun-17 22:00N 35°09' W 121°49'13411.3
2018-Jun-17 10:10N 37°09' W 123°01'1710.8
2018-Jun-17 08:34N 37°26' W 123°06'211.3
2018-Jun-17 08:25N 37°28' W 123°06'611.3
2018-Jun-17 07:51N 37°34' W 123°04'411.2
2018-Jun-17 07:30N 37°36' W 123°00'611.2
2018-Jun-17 07:00N 37°39' W 122°54'510.4
2018-Jun-17 06:30N 37°42' W 122°48'510.2
2018-Jun-17 06:00N 37°44' W 122°43'4 7.1
2018-Jun-17 05:30N 37°46' W 122°39'610.9
2018-Jun-17 05:00N 37°48' W 122°32'611.7
2018-Jun-17 04:30N 37°51' W 122°26'510.5
2018-Jun-17 04:00N 37°56' W 122°27'612.3
2018-Jun-17 03:30N 38°01' W 122°23'611.3
2018-Jun-17 03:00N 38°04' W 122°17'610.1
2018-Jun-17 02:22N 38°02' W 122°09'1 2.2
2018-Jun-17 02:00N 38°02' W 122°08'0 0.0
2018-Jun-15 09:17N 38°02' W 122°08'0 0.0
2018-Jun-15 09:00N 38°02' W 122°08'1 1.0
2018-Jun-15 08:30N 38°02' W 122°08'4 6.7
2018-Jun-15 07:58N 38°04' W 122°12'4 9.6
2018-Jun-15 07:30N 38°03' W 122°18'4 7.8
2018-Jun-15 07:00N 38°02' W 122°23'610.6
2018-Jun-15 06:25N 37°56' W 122°27'410.2
2018-Jun-15 06:00N 37°52' W 122°25'5 9.0
2018-Jun-15 05:30N 37°48' W 122°23'4 8.0
2018-Jun-15 05:00N 37°45' W 122°21'1 2.3
2018-Jun-15 04:30N 37°44' W 122°20'0 0.0
2018-Jun-15 03:59N 37°44' W 122°20'0 0.1
2018-Jun-15 03:29N 37°44' W 122°20'0 0.2
2018-Jun-15 02:59N 37°44' W 122°20'0 0.3
2018-Jun-15 02:29N 37°44' W 122°20'0 0.1
2018-Jun-15 01:59N 37°44' W 122°20'0 0.0
2018-Jun-15 01:30N 37°44' W 122°20'0 0.0
2018-Jun-15 00:59N 37°44' W 122°20'0 0.0
2018-Jun-15 00:27N 37°44' W 122°20'0 0.0
2018-Jun-15 00:00N 37°44' W 122°20'0 0.0
2018-Jun-14 23:29N 37°44' W 122°20'0 0.1
2018-Jun-14 22:50N 37°44' W 122°20'0 0.2
2018-Jun-14 22:17N 37°44' W 122°20'0 0.3
2018-Jun-14 21:56N 37°44' W 122°20'0 0.2
2018-Jun-14 21:29N 37°44' W 122°20'0 0.0
2018-Jun-14 20:59N 37°44' W 122°20'0 0.1
2018-Jun-14 20:26N 37°44' W 122°20'0 0.1
2018-Jun-14 19:56N 37°44' W 122°20'0 0.0
2018-Jun-14 19:29N 37°44' W 122°20'0 0.0
2018-Jun-14 18:59N 37°44' W 122°20'0 0.0
2018-Jun-14 18:27N 37°44' W 122°20'0 0.0
2018-Jun-14 17:56N 37°44' W 122°20'0 0.0
2018-Jun-14 17:29N 37°44' W 122°20'0 0.0
2018-Jun-14 16:59N 37°44' W 122°20'0 0.0
2018-Jun-14 16:29N 37°44' W 122°20'0 0.1
2018-Jun-14 16:00N 37°44' W 122°20'0 0.4
2018-Jun-14 15:30N 37°44' W 122°20'0 0.2
2018-Jun-14 14:59N 37°44' W 122°20'0 0.0
2018-Jun-14 14:30N 37°44' W 122°20'0 0.0
2018-Jun-14 13:59N 37°44' W 122°20'0 0.0
2018-Jun-14 13:29N 37°44' W 122°20'0 0.1
2018-Jun-14 12:59N 37°44' W 122°20'0 0.1
2018-Jun-14 12:29N 37°44' W 122°20'0 0.0
2018-Jun-14 11:59N 37°44' W 122°20'0 0.0
2018-Jun-14 11:30N 37°44' W 122°20'0 0.0
2018-Jun-14 11:00N 37°44' W 122°20'0 0.0
2018-Jun-14 10:30N 37°44' W 122°20'0 0.1
2018-Jun-14 09:59N 37°44' W 122°20'0 0.0
2018-Jun-14 09:30N 37°44' W 122°20'0 0.0
2018-Jun-14 09:00N 37°44' W 122°20'0 0.2
2018-Jun-14 08:26N 37°44' W 122°20'0 0.4
2018-Jun-14 08:00N 37°44' W 122°20'0 0.1
2018-Jun-14 07:29N 37°44' W 122°20'0 0.0
2018-Jun-14 06:59N 37°44' W 122°20'0 0.0
2018-Jun-14 06:30N 37°44' W 122°20'0 0.0
2018-Jun-14 06:00N 37°44' W 122°20'0 0.0
2018-Jun-14 05:29N 37°44' W 122°20'0 0.0
2018-Jun-14 04:59N 37°44' W 122°20'0 0.0
2018-Jun-14 04:30N 37°44' W 122°20'0 0.1
2018-Jun-14 04:00N 37°44' W 122°20'0 0.0
2018-Jun-14 03:26N 37°44' W 122°20'0 0.0
2018-Jun-14 02:59N 37°44' W 122°20'0 0.1
2018-Jun-14 02:29N 37°44' W 122°20'0 0.2
2018-Jun-14 01:59N 37°44' W 122°20'0 0.3
2018-Jun-14 01:29N 37°44' W 122°20'0 0.0
2018-Jun-14 00:59N 37°44' W 122°20'0 0.1
2018-Jun-14 00:29N 37°44' W 122°20'0 0.0
2018-Jun-13 23:57N 37°44' W 122°20'0 0.0
2018-Jun-13 23:29N 37°44' W 122°20'0 0.0
2018-Jun-13 22:59N 37°44' W 122°20'0 0.1
2018-Jun-13 22:26N 37°44' W 122°20'0 0.1
2018-Jun-13 21:59N 37°44' W 122°20'0 0.2
2018-Jun-13 21:29N 37°44' W 122°20'0 0.2
2018-Jun-13 20:56N 37°44' W 122°20'0 0.2
2018-Jun-13 20:29N 37°44' W 122°20'0 0.0
2018-Jun-13 19:59N 37°44' W 122°20'0 0.0
2018-Jun-13 19:26N 37°44' W 122°20'0 0.0
2018-Jun-13 18:59N 37°44' W 122°20'0 0.0
2018-Jun-13 18:26N 37°44' W 122°20'0 0.0
2018-Jun-13 17:56N 37°44' W 122°20'0 0.1
2018-Jun-13 17:26N 37°44' W 122°20'0 0.7
2018-Jun-13 17:01N 37°44' W 122°20'4 8.2
2018-Jun-13 16:30N 37°47' W 122°22'510.1
2018-Jun-13 16:00N 37°49' W 122°28'611.4
2018-Jun-13 15:30N 37°47' W 122°35'5 9.9
2018-Jun-13 15:00N 37°45' W 122°41'4 7.8
2018-Jun-13 14:30N 37°42' W 122°44'5 9.3
2018-Jun-13 14:00N 37°39' W 122°49'5 9.3
2018-Jun-13 13:30N 37°37' W 122°54'5 9.4
2018-Jun-13 12:59N 37°34' W 122°59'5 9.4
2018-Jun-13 12:30N 37°31' W 123°04'5 9.3
2018-Jun-13 12:00N 37°28' W 123°08'5 9.1
2018-Jun-13 11:29N 37°25' W 123°12'6 9.0
2018-Jun-13 10:51N 37°21' W 123°18'1 1.0
2018-Jun-13 10:11N 37°22' W 123°18'0 2.0
2018-Jun-13 09:59N 37°22' W 123°18'1 1.9
2018-Jun-13 09:29N 37°23' W 123°18'1 1.9
2018-Jun-13 08:53N 37°24' W 123°17'1 2.0
2018-Jun-13 08:29N 37°25' W 123°17'2 2.0
2018-Jun-13 07:17N 37°28' W 123°17'1 2.1
2018-Jun-13 07:00N 37°28' W 123°17'1 2.2
2018-Jun-13 06:30N 37°29' W 123°17'1 2.0
2018-Jun-13 06:00N 37°30' W 123°17'1 1.8
2018-Jun-13 05:30N 37°31' W 123°17'3 6.3
2018-Jun-13 04:59N 37°28' W 123°15'4 8.6
2018-Jun-13 04:30N 37°25' W 123°12'4 7.6
2018-Jun-13 03:58N 37°21' W 123°09'3 5.8
2018-Jun-13 03:26N 37°19' W 123°07'1 1.7
2018-Jun-13 03:00N 37°19' W 123°08'1 1.7
2018-Jun-13 02:30N 37°19' W 123°09'1 1.9
2018-Jun-13 02:00N 37°20' W 123°10'1 1.8
2018-Jun-13 01:29N 37°20' W 123°11'1 1.8
2018-Jun-13 01:00N 37°21' W 123°12'17 1.1
2018-Jun-12 09:32N 37°32' W 123°27'2 2.1
2018-Jun-12 08:48N 37°34' W 123°27'2 2.0
2018-Jun-12 07:42N 37°36' W 123°27'1 2.0
2018-Jun-12 07:20N 37°36' W 123°27'1 1.9
2018-Jun-12 06:47N 37°38' W 123°27'1 1.9
2018-Jun-12 06:24N 37°38' W 123°27'1 1.8
2018-Jun-12 05:50N 37°39' W 123°27'1 1.8
2018-Jun-12 05:29N 37°40' W 123°27'1 1.5
2018-Jun-12 05:00N 37°41' W 123°27'3 5.1
2018-Jun-12 04:30N 37°38' W 123°26'4 8.9
2018-Jun-12 04:00N 37°34' W 123°24'4 8.6
2018-Jun-12 03:30N 37°30' W 123°23'5 8.8
2018-Jun-12 02:58N 37°25' W 123°23'5 9.2
2018-Jun-12 02:28N 37°21' W 123°24'4 9.0
2018-Jun-12 02:00N 37°16' W 123°25'23 1.2
2018-Jun-11 06:44N 37°40' W 123°25'0 1.6
2018-Jun-11 06:30N 37°40' W 123°25'1 1.5
2018-Jun-11 05:45N 37°41' W 123°25'1 1.0
2018-Jun-11 04:40N 37°42' W 123°25'1 5.4
2018-Jun-11 04:30N 37°41' W 123°24'7 9.4
2018-Jun-11 03:45N 37°34' W 123°25'4 9.2
2018-Jun-11 03:20N 37°31' W 123°26'6 1.3
2018-Jun-10 22:34N 37°37' W 123°26'3 1.5
2018-Jun-10 20:47N 37°40' W 123°26'0 1.4
2018-Jun-10 20:30N 37°40' W 123°26'1 1.4
2018-Jun-10 19:57N 37°41' W 123°25'1 1.4
2018-Jun-10 19:30N 37°41' W 123°25'1 1.3
2018-Jun-10 18:46N 37°42' W 123°25'0 0.6
2018-Jun-10 18:29N 37°42' W 123°25'3 5.8
2018-Jun-10 17:55N 37°39' W 123°24'4 9.8
2018-Jun-10 17:29N 37°36' W 123°21'4 0.3
2018-Jun-10 06:37N 37°32' W 123°20'3 1.6
2018-Jun-10 04:24N 37°35' W 123°20'1 1.4
2018-Jun-10 03:58N 37°36' W 123°20'1 1.3
2018-Jun-10 03:27N 37°37' W 123°20'1 0.8
2018-Jun-10 02:34N 37°37' W 123°20'0 0.1
2018-Jun-10 02:30N 37°37' W 123°20'13 1.0
2018-Jun-09 13:14N 37°28' W 123°10'2 9.7
2018-Jun-09 13:00N 37°26' W 123°08'6811.7
2018-Jun-09 07:11N 36°26' W 122°28'212.1
2018-Jun-09 06:59N 36°23' W 122°28'1011.5
2018-Jun-09 06:07N 36°14' W 122°24'111.3
2018-Jun-09 06:00N 36°13' W 122°23'710.9
2018-Jun-09 05:23N 36°07' W 122°20'411.0
2018-Jun-09 05:00N 36°03' W 122°18'611.2
2018-Jun-09 04:30N 35°57' W 122°17'5 9.3
2018-Jun-09 03:59N 35°52' W 122°16'13 9.9
2018-Jun-09 02:38N 35°41' W 122°07'410.9
2018-Jun-09 02:18N 35°38' W 122°05'611.0
2018-Jun-09 01:47N 35°33' W 122°02'311.0
2018-Jun-09 01:30N 35°30' W 122°00'511.0
2018-Jun-09 01:00N 35°25' W 121°58'711.1
2018-Jun-09 00:20N 35°18' W 121°54'611.3
2018-Jun-08 23:48N 35°13' W 121°51'311.3
2018-Jun-08 23:30N 35°10' W 121°49'611.5
2018-Jun-08 23:00N 35°04' W 121°47'611.2
2018-Jun-08 22:30N 34°59' W 121°44'811.1
2018-Jun-08 21:49N 34°52' W 121°41'311.0
2018-Jun-08 21:30N 34°49' W 121°39'611.1
2018-Jun-08 21:00N 34°44' W 121°36'611.5
2018-Jun-08 20:30N 34°39' W 121°33'611.8
2018-Jun-08 20:00N 34°33' W 121°31'611.7
2018-Jun-08 19:27N 34°27' W 121°27'511.5
2018-Jun-08 18:59N 34°23' W 121°24'611.2
2018-Jun-08 18:28N 34°18' W 121°20'511.2
2018-Jun-08 18:00N 34°14' W 121°17'611.2
2018-Jun-08 17:30N 34°09' W 121°13'511.0
2018-Jun-08 17:00N 34°04' W 121°09'611.4
2018-Jun-08 16:30N 33°59' W 121°06'510.9
2018-Jun-08 16:00N 33°55' W 121°03'510.8
2018-Jun-08 15:30N 33°50' W 120°59'510.7
2018-Jun-08 15:00N 33°45' W 120°56'510.7
2018-Jun-08 14:30N 33°41' W 120°53'510.3
2018-Jun-08 14:00N 33°37' W 120°49'510.1
2018-Jun-08 13:30N 33°32' W 120°46'510.0
2018-Jun-08 12:59N 33°28' W 120°42'510.3
2018-Jun-08 12:30N 33°25' W 120°38'510.6
2018-Jun-08 12:00N 33°20' W 120°34'510.2
2018-Jun-08 11:30N 33°16' W 120°31'5 9.9
2018-Jun-08 11:00N 33°12' W 120°28'5 9.8
2018-Jun-08 10:30N 33°08' W 120°24'510.5
2018-Jun-08 10:00N 33°04' W 120°21'510.5
2018-Jun-08 09:30N 32°59' W 120°17'  

Dump ship's entire track history